Date,TemperatureHighF,TemperatureAvgF,TemperatureLowF,DewpointHighF,DewpointAvgF,DewpointLowF,HumidityHigh,HumidityAvg,HumidityLow,PressureMaxIn,PressureMinIn,WindSpeedMaxMPH,WindSpeedAvgMPH,GustSpeedMaxMPH,PrecipitationSumIn
2013-1-1,55,49,42,54,45,38,95,89,80,31.07,30.77,14,5,0,0.03
2013-1-2,42,40,38,37,34,33,84,80,73,31.19,31.06,11,3,0,0.00
2013-1-3,50,41,29,39,33,26,91,77,53,31.31,31.18,11,2,0,0.01
2013-1-4,46,44,42,40,37,35,84,77,68,31.38,31.23,7,2,0,0.00
2013-1-5,45,43,32,43,40,31,92,90,85,31.25,31.11,3,0,0,0.14
2013-1-6,54,41,32,47,38,30,94,90,66,31.25,31.14,9,2,0,0.01
2013-1-7,57,43,28,44,37,27,94,80,57,31.19,30.95,9,1,0,0.00
2013-1-8,62,56,50,60,53,43,95,89,76,30.94,30.64,14,3,0,0.07
2013-1-9,65,63,61,64,62,60,95,95,94,30.82,30.67,13,3,0,2.35
2013-1-10,66,59,52,60,52,47,95,80,52,30.89,30.78,9,3,0,0.01
2013-1-11,74,60,45,64,55,42,94,83,68,30.85,30.66,17,4,0,0.00
2013-1-12,74,70,48,70,67,46,95,90,78,30.66,30.44,17,8,0,0.02
2013-1-13,50,43,38,45,37,33,93,80,64,31.01,30.62,18,6,0,0.10
2013-1-14,46,40,35,37,34,30,84,78,72,31.10,30.97,12,4,0,0.00
2013-1-15,40,36,34,35,33,32,93,90,81,31.07,30.92,10,4,0,0.06
2013-1-16,48,38,28,33,28,23,88,68,39,31.19,31.05,11,2,0,0.00
2013-1-17,62,42,26,39,32,24,92,71,41,31.35,31.14,9,1,0,0.00
2013-1-18,63,48,33,41,36,30,90,66,40,31.38,31.20,9,2,0,0.00
2013-1-19,67,51,40,49,43,33,92,75,47,31.20,31.01,9,2,0,0.00
2013-1-20,69,55,42,55,48,40,94,79,52,31.09,30.93,10,1,0,0.00
2013-1-21,72,55,42,57,49,40,94,80,52,31.08,30.97,6,1,0,0.00
2013-1-22,71,55,40,54,47,38,93,77,55,31.15,31.03,10,2,0,0.00
2013-1-23,65,54,51,59,52,49,94,92,80,31.16,31.10,6,2,0,0.00
2013-1-25,64,64,63,61,61,61,91,90,88,30.93,30.91,5,2,0,0.00
2013-1-26,76,66,56,65,59,54,94,80,56,31.00,30.87,11,2,0,0.00
2013-1-27,78,68,60,67,63,57,93,85,67,30.93,30.80,14,6,0,0.00
2013-1-28,82,72,69,68,65,57,90,79,44,30.88,30.71,19,9,0,0.00
2013-1-29,77,70,56,69,66,53,92,85,74,30.70,30.32,23,6,0,0.11
2013-1-30,57,50,35,54,34,28,90,57,36,31.06,30.55,0,0,0,0.00
2013-1-31,66,49,33,36,31,26,83,54,22,31.16,31.03,0,0,0,0.00
2013-2-1,70,56,39,47,40,36,89,60,35,31.19,31.04,0,0,0,0.00
2013-2-2,75,60,50,56,50,43,89,72,45,31.09,30.98,0,0,0,0.00
2013-2-3,71,57,39,48,37,30,91,53,22,31.16,30.88,6,1,0,0.00
2013-2-4,71,62,54,63,55,38,94,80,50,30.87,30.61,9,1,0,0.00
2013-2-5,78,68,61,66,63,58,94,85,65,30.77,30.66,5,1,0,0.00
2013-2-6,67,64,59,64,61,56,95,90,84,30.81,30.65,6,1,0,0.38
2013-2-7,68,61,55,62,58,53,93,89,80,30.83,30.68,8,1,0,0.00
2013-2-8,67,57,50,56,49,46,91,76,52,31.02,30.83,9,3,0,0.00
2013-2-9,68,59,49,65,55,47,91,86,79,30.94,30.63,11,4,0,0.00
2013-2-10,70,64,56,68,55,41,93,75,42,30.81,30.55,14,4,0,0.18
2013-2-11,57,53,50,51,49,45,91,85,65,30.91,30.76,12,2,0,0.52
2013-2-12,60,55,51,56,52,46,94,89,79,30.82,30.63,9,2,0,0.04
2013-2-13,57,48,38,46,40,35,88,74,56,30.98,30.82,14,3,0,0.00
2013-2-14,66,49,32,45,36,30,93,66,31,31.00,30.88,6,0,0,0.00
2013-2-15,61,50,38,45,39,33,92,69,48,31.20,30.93,13,3,0,0.01
2013-2-16,61,45,30,36,31,26,89,61,34,31.29,31.09,6,1,0,0.00
2013-2-17,71,56,41,50,42,33,88,63,33,31.09,30.84,24,7,0,0.00
2013-2-18,75,65,57,66,57,40,90,75,44,30.89,30.61,19,6,0,0.64
2013-2-19,66,56,42,41,37,32,81,51,29,31.08,30.90,9,2,0,0.00
2013-2-20,61,55,51,56,44,32,90,67,45,30.95,30.56,15,5,0,0.01
2013-2-21,75,64,49,70,55,43,94,75,35,30.66,30.44,21,5,0,0.04
2013-2-22,60,53,48,47,43,37,81,70,55,30.84,30.64,12,3,0,0.00
2013-2-23,67,51,40,46,40,34,80,65,45,30.86,30.72,9,2,0,0.00
2013-2-24,72,58,42,53,47,36,87,66,44,30.78,30.44,10,3,0,0.00
2013-2-25,71,60,47,61,44,28,94,61,22,30.58,30.33,16,4,0,0.03
2013-2-26,62,50,40,40,36,32,75,60,37,30.75,30.58,14,2,0,0.00
2013-2-27,62,52,37,47,36,30,83,56,32,31.02,30.73,15,3,0,0.00
2013-2-28,58,45,36,35,31,28,80,59,37,31.16,31.01,10,2,0,0.00
2013-3-1,62,43,29,36,31,26,89,66,32,31.16,31.01,6,1,0,0.00
2013-3-2,54,42,34,32,28,23,84,61,31,31.24,31.11,16,3,0,0.00
2013-3-3,69,51,31,48,35,26,82,59,30,31.13,30.80,18,6,0,0.00
2013-3-4,80,65,54,61,56,48,90,74,47,30.79,30.52,25,12,0,0.00
2013-3-5,65,57,36,61,39,25,88,54,28,31.17,30.56,19,7,0,0.00
2013-3-6,65,44,28,33,28,23,83,57,22,31.28,31.08,11,1,0,0.00
2013-3-7,72,56,38,49,43,34,91,66,36,31.11,30.96,12,2,0,0.00
2013-3-8,71,61,53,61,55,48,90,81,67,31.01,30.86,11,4,0,0.00
2013-3-9,77,68,60,66,62,57,91,81,65,30.86,30.52,18,7,0,0.00
2013-3-10,68,60,49,64,50,37,94,72,46,30.90,30.45,13,4,0,0.68
2013-3-11,59,49,37,38,32,24,86,55,27,30.97,30.84,11,2,0,0.00
2013-3-12,72,54,36,43,34,26,85,51,28,31.09,30.90,5,1,0,0.00
2013-3-13,72,56,39,44,40,36,91,59,32,31.28,31.09,12,1,0,0.00
2013-3-14,75,59,42,52,47,39,92,66,40,31.23,31.05,13,4,0,0.00
2013-3-15,79,63,49,59,52,46,91,70,41,31.08,30.84,16,6,0,0.00
2013-3-16,81,67,56,62,58,55,93,76,44,30.83,30.58,21,9,0,0.00
2013-3-17,82,70,63,65,62,60,92,78,54,30.64,30.44,15,7,0,0.00
2013-3-18,87,74,63,68,63,52,93,72,48,30.70,30.50,12,4,0,0.00
2013-3-19,81,68,58,62,55,47,81,63,48,30.78,30.64,9,2,0,0.00
2013-3-20,71,60,53,54,49,39,93,70,32,31.03,30.75,10,2,0,0.34
2013-3-21,72,62,52,61,51,39,87,69,53,30.85,30.45,21,5,0,0.00
2013-3-22,82,72,62,70,65,55,94,80,64,30.54,30.42,13,4,0,0.00
2013-3-23,69,61,56,62,56,52,88,83,76,30.54,30.39,8,2,0,0.00
2013-3-24,62,52,40,58,38,30,92,62,38,30.99,30.46,15,5,0,0.00
2013-3-25,58,44,33,31,28,24,86,56,27,31.26,30.99,11,2,0,0.00
2013-3-26,60,47,29,31,28,22,80,50,29,31.35,31.17,11,1,0,0.00
2013-3-27,72,55,35,47,38,25,84,55,34,31.21,31.00,13,3,0,0.00
2013-3-28,72,63,53,59,54,46,83,74,62,31.05,30.95,15,3,0,0.00
2013-3-29,77,67,57,62,59,54,93,76,58,31.02,30.89,14,3,0,0.00
2013-3-30,81,70,62,64,62,60,93,77,53,30.92,30.70,16,4,0,0.00
2013-3-31,82,71,62,69,65,60,91,82,59,30.75,30.61,12,4,0,0.01
2013-4-1,81,70,62,67,64,59,93,82,62,30.85,30.71,6,1,0,0.00
2013-4-2,72,65,60,65,62,58,93,88,77,30.81,30.64,8,2,0,1.13
2013-4-3,61,56,50,59,53,48,94,91,86,30.92,30.56,12,3,0,0.14
2013-4-4,52,49,48,48,45,42,93,85,76,31.04,30.88,10,2,0,0.00
2013-4-5,70,55,39,53,47,37,93,74,51,31.11,30.91,6,1,0,0.00
2013-4-6,75,63,50,61,55,47,92,77,60,30.91,30.71,19,5,0,0.00
2013-4-7,79,69,60,64,61,57,90,76,58,30.77,30.59,18,5,0,0.00
2013-4-8,81,72,66,68,65,62,91,79,59,30.65,30.49,17,4,0,0.00
2013-4-9,84,75,67,71,68,64,90,79,61,30.54,30.41,16,5,0,0.00
2013-4-10,75,61,46,71,58,42,92,88,81,30.70,30.45,19,3,0,0.11
2013-4-11,66,54,44,45,41,35,86,64,42,30.77,30.62,12,3,0,0.00
2013-4-12,78,60,41,52,46,38,94,65,31,30.84,30.68,12,1,0,0.00
2013-4-13,77,64,47,59,52,44,93,69,44,30.78,30.60,8,1,0,0.00
2013-4-14,81,67,51,69,62,49,94,82,65,30.61,30.41,14,4,0,0.00
2013-4-15,83,74,68,72,68,66,92,82,65,30.61,30.49,15,6,0,0.00
2013-4-16,87,77,70,73,70,67,91,80,59,30.70,30.58,11,5,0,0.00
2013-4-17,81,76,73,73,71,70,93,86,73,30.68,30.49,13,5,0,0.00
2013-4-18,73,62,50,70,58,43,94,86,71,30.89,30.44,11,5,0,0.33
2013-4-19,64,52,42,42,36,29,84,59,28,31.10,30.88,13,3,0,0.00
2013-4-20,70,55,35,44,39,32,90,59,34,31.08,30.88,12,3,0,0.00
2013-4-21,74,62,48,57,51,43,87,69,53,30.99,30.85,10,2,0,0.00
2013-4-22,81,67,49,63,57,47,94,73,51,30.93,30.69,12,3,0,0.00
2013-4-23,80,69,53,68,62,49,92,80,63,30.84,30.64,10,4,0,0.00
2013-4-24,66,54,44,49,45,41,91,72,49,31.06,30.85,13,4,0,0.00
2013-4-25,75,63,50,50,47,44,86,58,37,31.14,30.98,10,2,0,0.00
2013-4-26,85,73,66,70,64,47,92,73,47,31.00,30.82,14,5,0,0.00
2013-4-27,81,71,64,72,67,62,94,86,68,30.89,30.73,10,3,0,0.00
2013-4-28,83,71,61,67,63,59,94,78,53,30.85,30.65,14,2,0,0.25
2013-4-29,82,69,61,68,64,59,94,85,58,30.73,30.59,11,2,0,0.01
2013-4-30,85,72,61,69,65,59,95,80,52,30.63,30.49,9,2,0,0.05
2013-5-1,85,74,63,70,66,61,94,79,54,30.69,30.57,11,1,0,0.00
2013-5-2,72,61,47,66,55,40,92,81,69,31.07,30.68,15,4,0,0.00
2013-5-3,66,53,43,40,35,30,78,55,26,31.08,30.89,16,5,0,0.00
2013-5-4,82,61,39,46,38,34,80,49,20,30.91,30.66,14,3,0,0.00
2013-5-5,71,58,41,47,43,36,86,60,40,30.94,30.78,9,2,0,0.00
2013-5-6,77,62,44,56,49,40,91,66,44,30.94,30.78,3,0,0,0.00
2013-5-7,85,69,50,58,54,47,93,64,36,30.88,30.74,9,2,0,0.00
2013-5-8,86,73,61,66,62,57,92,70,43,30.83,30.70,13,4,0,0.00
2013-5-9,80,72,67,71,68,63,94,86,74,30.76,30.59,12,3,0,0.20
2013-5-10,81,72,64,70,67,62,94,84,60,30.85,30.50,19,2,0,1.32
2013-5-11,82,71,60,69,62,54,94,75,45,30.90,30.72,9,2,0,0.04
2013-5-12,79,68,56,61,55,50,90,67,45,31.01,30.89,6,2,0,0.00
2013-5-13,82,68,50,61,55,47,91,64,42,31.08,30.95,10,2,0,0.00
2013-5-14,83,71,60,68,63,56,94,78,52,31.02,30.83,12,4,0,0.00
2013-5-15,79,71,66,72,67,64,94,88,77,30.91,30.66,14,5,0,0.12
2013-5-16,84,74,64,73,69,62,93,82,68,30.75,30.54,20,6,0,0.05
2013-5-17,89,79,71,77,72,68,92,81,66,30.70,30.59,15,6,0,0.00
2013-5-18,91,80,73,76,72,69,92,76,56,30.70,30.61,16,6,0,0.00
2013-5-19,90,80,73,74,71,70,91,76,56,30.65,30.52,15,7,0,0.00
2013-5-20,90,81,74,75,72,70,91,77,59,30.64,30.48,15,6,0,0.00
2013-5-21,90,80,68,74,72,65,91,77,60,30.62,30.43,16,6,0,0.67
2013-5-22,87,73,66,76,70,64,94,88,71,30.69,30.58,4,1,0,0.46
2013-5-23,89,80,73,77,74,71,93,81,65,30.80,30.65,12,3,0,0.00
2013-5-24,88,79,74,76,73,71,94,83,64,30.89,30.76,11,2,0,0.01
2013-5-25,82,77,72,74,72,70,93,84,72,30.91,30.80,11,2,0,0.00
2013-5-26,88,79,73,74,71,68,93,78,58,30.87,30.74,13,4,0,0.01
2013-5-27,89,79,71,74,71,69,94,78,58,30.80,30.63,11,5,0,0.00
2013-5-28,89,78,72,75,71,69,92,79,57,30.70,30.58,17,5,0,0.00
2013-5-29,86,79,74,75,72,71,90,81,66,30.66,30.53,16,5,0,0.00
2013-5-30,90,81,75,77,74,72,92,80,64,30.62,30.52,17,6,0,0.02
2013-5-31,92,83,77,77,75,73,92,77,58,30.64,30.52,16,7,0,0.00
2013-6-1,94,84,77,77,75,73,90,75,55,30.63,30.55,13,7,0,0.00
2013-6-2,82,75,68,74,70,64,94,84,62,30.80,30.62,8,2,0,0.71
2013-6-3,88,76,63,70,66,61,94,72,47,30.75,30.60,4,1,0,0.00
2013-6-4,90,79,68,74,70,65,93,75,55,30.69,30.55,7,1,0,0.00
2013-6-5,91,80,69,75,72,67,94,78,57,30.66,30.47,6,1,0,0.00
2013-6-6,92,80,71,77,72,68,94,79,54,30.67,30.49,10,2,0,0.00
2013-6-7,84,74,66,69,65,59,94,74,47,30.72,30.63,8,1,0,0.00
2013-6-8,90,78,62,72,66,58,91,69,49,30.71,30.57,11,2,0,0.00
2013-6-9,83,76,71,77,72,69,94,88,75,30.72,30.62,10,2,0,0.90
2013-6-10,92,80,68,77,72,66,95,80,56,30.76,30.67,8,2,0,0.00
2013-6-11,89,79,74,79,75,71,94,88,68,30.80,30.72,9,2,0,0.48
2013-6-12,92,82,74,79,76,72,95,81,61,30.83,30.71,9,3,0,0.00
2013-6-13,94,83,72,78,74,70,94,78,54,30.83,30.65,7,1,0,0.00
2013-6-14,94,84,75,78,75,73,94,77,55,30.73,30.62,6,1,0,0.00
2013-6-15,92,82,76,78,74,72,92,78,52,30.75,30.63,8,2,0,0.00
2013-6-16,94,84,73,77,74,71,94,74,51,30.79,30.64,9,3,0,0.00
2013-6-17,95,84,75,76,74,71,94,73,48,30.74,30.60,12,4,0,0.00
2013-6-18,90,82,76,78,74,71,93,77,56,30.73,30.62,10,3,0,0.05
2013-6-19,95,84,74,76,74,72,93,74,50,30.74,30.65,10,3,0,0.00
2013-6-20,95,84,75,77,74,70,93,72,46,30.82,30.71,11,4,0,0.00
2013-6-21,96,84,74,77,73,70,94,72,45,30.85,30.73,11,3,0,0.00
2013-6-22,96,84,74,77,73,69,94,70,43,30.81,30.67,13,4,0,0.00
2013-6-23,96,84,74,76,73,70,93,71,44,30.76,30.66,13,4,0,0.00
2013-6-24,96,85,75,76,72,69,92,67,43,30.80,30.67,12,5,0,0.00
2013-6-25,98,85,75,78,73,68,93,69,42,30.78,30.64,14,6,0,0.00
2013-6-26,99,86,75,76,73,70,93,69,41,30.75,30.62,13,5,0,0.01
2013-6-27,99,85,74,76,72,63,93,68,31,30.79,30.63,9,3,0,0.00
2013-6-28,102,87,75,75,71,63,92,63,28,30.73,30.53,9,2,0,0.00
2013-6-29,104,89,72,74,69,61,87,55,30,30.59,30.45,9,2,0,0.00
2013-6-30,97,86,71,68,63,58,74,47,32,30.64,30.52,8,1,0,0.00
2013-7-1,87,78,63,63,60,57,80,56,44,30.72,30.61,9,1,0,0.00
2013-7-2,93,78,63,65,59,54,85,56,30,30.80,30.69,5,1,0,0.00
2013-7-3,96,83,70,68,62,56,79,54,27,30.77,30.63,10,2,0,0.00
2013-7-4,93,81,69,70,66,63,86,63,40,30.75,30.64,5,1,0,0.00
2013-7-5,97,83,66,72,66,62,91,59,34,30.75,30.60,8,1,0,0.00
2013-7-6,96,82,71,76,70,66,91,71,38,30.69,30.57,7,2,0,0.00
2013-7-7,96,84,75,76,73,70,92,72,48,30.74,30.65,11,3,0,0.00
2013-7-8,90,80,73,75,73,71,94,80,55,30.90,30.74,11,3,0,0.81
2013-7-9,97,85,74,78,74,71,94,73,44,30.91,30.76,14,3,0,0.00
2013-7-10,98,85,75,77,74,71,93,71,43,30.85,30.66,12,3,0,0.00
2013-7-11,98,85,75,76,72,66,93,67,35,30.76,30.62,13,3,0,0.00
2013-7-12,99,85,75,76,72,70,92,69,40,30.72,30.59,9,2,0,0.00
2013-7-13,102,87,73,75,70,63,92,61,30,30.73,30.56,5,1,0,0.00
2013-7-14,88,81,74,74,71,67,87,73,57,30.69,30.61,10,2,0,0.00
2013-7-15,87,75,71,75,71,67,93,86,67,30.82,30.67,6,2,0,0.16
2013-7-16,93,79,74,75,72,71,93,81,51,30.88,30.78,17,3,0,0.09
2013-7-17,85,78,74,76,73,71,94,85,65,30.95,30.87,11,2,0,0.01
2013-7-18,96,83,71,76,71,68,94,69,43,30.92,30.73,10,1,0,0.00
2013-7-19,91,79,72,75,71,68,92,77,52,30.82,30.69,6,1,0,0.00
2013-7-20,90,79,74,75,72,71,91,81,54,30.75,30.64,9,2,0,0.00
2013-7-21,92,80,72,79,75,70,94,84,62,30.72,30.65,24,3,0,0.01
2013-7-22,98,86,78,78,76,73,93,74,48,30.76,30.65,15,7,0,0.00
2013-7-23,98,85,78,77,74,69,92,72,45,30.77,30.61,12,6,0,0.00
2013-7-24,97,84,75,76,74,71,94,73,43,30.76,30.61,8,2,0,0.00
2013-7-25,100,86,75,76,72,67,93,66,39,30.77,30.69,10,2,0,0.00
2013-7-26,97,86,78,77,74,71,93,71,44,30.79,30.61,14,6,0,0.00
2013-7-27,88,82,79,76,74,71,88,77,62,30.70,30.61,11,2,0,0.00
2013-7-28,96,83,75,77,73,71,86,73,52,30.72,30.61,9,3,0,0.00
2013-7-29,100,86,77,78,72,63,92,67,30,30.82,30.71,19,6,0,0.00
2013-7-30,101,86,76,76,71,61,92,65,29,30.87,30.73,16,6,0,0.00
2013-7-31,101,85,74,75,72,67,94,68,33,30.86,30.66,10,4,0,0.00
2013-8-1,101,88,76,76,73,71,92,64,41,30.78,30.62,7,3,0,0.00
2013-8-2,101,87,75,76,72,69,92,64,37,30.73,30.62,13,4,0,0.00
2013-8-3,100,86,74,76,73,69,94,68,38,30.78,30.67,12,3,0,0.00
2013-8-4,101,87,76,78,75,71,93,69,39,30.83,30.67,12,3,0,0.00
2013-8-5,102,86,76,77,73,67,93,68,33,30.79,30.62,18,5,0,0.00
2013-8-6,102,87,76,76,73,69,93,67,37,30.71,30.58,15,6,0,0.00
2013-8-7,103,88,79,76,73,66,90,64,31,30.69,30.54,14,7,0,0.00
2013-8-8,103,87,76,76,72,63,93,66,28,30.67,30.53,13,5,0,0.00
2013-8-9,102,86,73,76,72,70,94,66,36,30.71,30.59,9,2,0,0.00
2013-8-10,100,86,76,78,74,70,91,70,43,30.78,30.66,11,2,0,0.00
2013-8-11,97,83,74,77,73,70,92,74,43,30.82,30.71,6,1,0,0.00
2013-8-12,99,85,74,76,73,70,93,70,40,30.83,30.68,13,3,0,0.00
2013-8-13,102,88,78,77,72,63,92,63,28,30.78,30.61,11,3,0,0.00
2013-8-14,97,82,74,76,74,71,91,79,48,30.74,30.61,8,2,0,1.08
2013-8-15,89,79,74,77,74,72,93,83,63,30.78,30.68,5,1,0,0.15
2013-8-16,95,81,74,74,72,70,91,75,49,30.77,30.63,6,1,0,0.02
2013-8-17,92,80,69,70,64,60,90,62,34,30.80,30.67,8,1,0,0.00
2013-8-18,95,81,65,70,63,60,87,58,33,30.80,30.70,5,1,0,0.00
2013-8-19,94,81,68,73,66,63,90,63,38,30.82,30.67,6,1,0,0.00
2013-8-20,94,81,70,74,68,64,89,67,38,30.78,30.70,11,2,0,0.00
2013-8-21,95,82,70,76,70,66,89,68,42,30.85,30.72,11,1,0,0.00
2013-8-22,98,84,74,77,72,69,90,71,40,30.83,30.65,6,1,0,0.09
2013-8-23,97,85,74,76,72,69,90,67,41,30.78,30.62,7,1,0,0.00
2013-8-24,97,86,75,76,71,68,87,64,40,30.79,30.66,9,2,0,0.00
2013-8-25,93,83,75,75,72,69,84,70,47,30.84,30.76,15,3,0,0.00
2013-8-26,86,78,74,74,72,70,88,80,65,30.88,30.82,7,2,0,0.14
2013-8-27,91,79,72,75,71,69,88,76,53,30.90,30.79,7,2,0,0.01
2013-8-28,96,83,71,75,70,66,86,68,44,30.86,30.73,5,1,0,0.00
2013-8-29,100,86,74,75,70,66,84,62,33,30.83,30.66,7,1,0,0.00
2013-8-30,101,87,75,75,71,68,84,63,36,30.76,30.59,10,3,0,0.00
2013-8-31,99,86,75,75,72,70,84,65,41,30.69,30.55,9,3,0,0.00
2013-9-1,99,86,74,75,70,66,83,63,35,30.68,30.54,11,3,0,0.00
2013-9-2,100,87,75,76,71,66,83,62,34,30.73,30.55,11,2,0,0.00
2013-9-3,100,85,78,74,71,68,77,64,37,30.73,30.60,7,2,0,0.00
2013-9-4,96,84,76,76,72,69,82,69,46,30.79,30.67,10,1,0,0.00
2013-9-5,98,82,73,75,70,66,81,69,42,30.85,30.72,9,1,0,0.03
2013-9-6,97,83,72,75,71,66,81,68,41,30.84,30.70,7,1,0,0.00
2013-9-7,92,79,72,75,69,65,80,73,55,30.79,30.69,6,1,0,0.03
2013-9-8,93,80,72,74,69,65,79,70,51,30.75,30.63,9,2,0,0.02
2013-9-9,94,80,71,73,68,64,77,69,48,30.76,30.67,11,2,0,0.00
2013-9-10,94,81,73,73,69,64,75,68,38,30.83,30.74,11,2,0,0.00
2013-9-11,96,83,73,74,68,65,75,62,39,30.86,30.73,8,2,0,0.00
2013-9-12,96,83,71,74,67,62,74,61,36,30.81,30.64,9,1,0,0.00
2013-9-13,98,83,68,71,66,60,74,58,36,30.71,30.54,7,1,0,0.00
2013-9-14,96,84,74,72,69,65,74,62,44,30.68,30.57,9,2,0,0.00
2013-9-15,95,83,74,74,70,65,74,65,44,30.76,30.66,9,2,0,0.00
2013-9-16,94,83,75,74,70,66,74,67,45,30.81,30.69,11,2,0,0.00
2013-9-17,97,84,73,75,69,64,74,62,40,30.81,30.67,11,2,0,0.00
2013-9-18,98,83,72,75,69,63,74,63,40,30.76,30.62,10,2,0,0.00
2013-9-19,92,81,76,75,70,67,74,70,57,30.71,30.59,10,2,0,0.11
2013-9-20,81,78,73,70,67,62,72,70,68,30.64,30.50,12,2,0,2.31
2013-9-21,82,74,70,68,63,59,70,67,61,30.65,30.55,11,3,0,0.14
2013-9-22,84,73,60,60,56,50,71,56,35,30.66,30.52,9,2,0,0.00
2013-9-23,88,77,68,70,63,56,71,62,55,30.60,30.50,7,1,0,0.00
2013-9-24,93,80,70,72,64,59,72,60,37,30.64,30.54,10,1,0,0.00
2013-9-25,94,78,63,67,60,53,71,57,29,30.65,30.53,8,1,0,0.00
2013-9-26,92,79,69,71,64,58,72,60,37,30.68,30.58,9,2,0,0.00
2013-9-27,88,80,71,76,69,61,72,69,64,30.70,30.61,10,2,0,0.00
2013-9-28,88,80,76,76,69,64,70,67,62,30.73,30.62,8,2,0,0.21
2013-9-29,80,76,72,68,62,58,68,63,61,30.77,30.66,9,1,0,3.60
2013-9-30,88,78,72,72,64,58,67,62,57,30.70,30.56,8,0,0,0.00
2013-10-1,88,80,75,74,65,59,67,61,56,30.70,30.60,9,1,0,0.01
2013-10-2,82,77,74,68,60,57,63,57,53,30.74,30.65,10,1,0,0.31
2013-10-3,89,80,74,74,64,54,65,57,50,30.72,30.60,9,1,0,0.00
2013-10-4,89,80,73,73,63,54,65,57,50,30.70,30.61,11,2,0,0.00
2013-10-5,90,78,63,72,61,52,69,56,47,30.77,30.61,9,2,0,0.00
2013-10-6,78,65,52,54,47,40,71,56,26,30.90,30.77,9,3,0,0.00
2013-10-7,80,62,47,55,43,33,70,54,27,30.96,30.84,7,1,0,0.00
2013-10-8,82,65,49,58,47,34,70,55,34,30.91,30.78,4,0,0,0.00
2013-10-9,83,70,60,62,56,46,70,61,45,30.87,30.75,8,2,0,0.00
2013-10-10,86,74,62,67,58,47,70,59,49,30.84,30.68,10,2,0,0.00
2013-10-11,88,77,69,74,63,52,68,62,55,30.73,30.61,14,3,0,0.00
2013-10-12,88,78,73,75,59,52,65,52,45,30.81,30.67,9,2,0,0.19
2013-10-13,76,73,70,53,51,48,48,46,44,30.94,30.79,9,0,0,2.75
2013-10-14,81,76,72,67,55,49,62,49,42,30.88,30.71,6,1,0,0.00
2013-10-15,86,78,72,71,57,48,63,50,41,30.76,30.63,12,2,0,0.00
2013-10-16,74,63,60,49,40,37,44,43,41,30.84,30.69,7,1,0,0.19
2013-10-17,73,63,56,56,45,34,66,53,43,30.91,30.78,7,0,0,0.00
2013-10-18,70,64,57,58,51,37,67,62,47,30.82,30.69,7,1,0,0.00
2013-10-19,66,59,47,49,41,31,69,53,43,30.97,30.77,10,2,0,0.02
2013-10-20,74,58,44,55,42,26,68,55,43,30.93,30.75,13,2,0,0.00
2013-10-21,80,69,59,65,50,37,65,52,41,30.80,30.69,9,2,0,0.07
2013-10-22,73,64,52,56,44,34,68,50,40,30.91,30.79,11,3,0,0.00
2013-10-23,81,63,49,58,44,29,68,50,36,30.97,30.88,5,1,0,0.00
2013-10-24,83,65,52,60,47,33,68,52,35,31.04,30.92,3,0,0,0.00
2013-10-25,74,64,55,59,49,34,68,60,45,31.16,31.03,10,2,0,0.00
2013-10-26,80,67,55,66,55,45,70,66,55,31.06,30.88,11,4,0,0.00
2013-10-27,72,67,62,57,47,38,61,49,40,30.90,30.81,6,1,0,0.76
2013-10-28,82,72,63,69,53,39,65,52,41,30.90,30.79,8,2,0,0.00
2013-10-29,83,75,70,70,55,44,65,50,39,30.88,30.78,13,3,0,0.00
2013-10-30,83,76,72,59,48,43,45,37,32,30.84,30.59,16,3,0,2.51
2013-10-31,81,71,55,66,44,31,66,40,33,30.68,30.49,8,0,0,0.80
2013-11-1,78,65,53,61,49,28,66,56,39,30.80,30.61,11,2,0,0.00
2013-11-2,70,60,47,50,43,28,68,56,36,31.05,30.80,10,2,0,0.00
2013-11-3,69,56,44,52,42,24,69,59,45,31.05,30.89,10,2,0,0.00
2013-11-4,70,64,55,55,43,36,69,50,32,30.90,30.81,9,2,0,0.15
2013-11-5,74,70,66,43,38,35,33,31,28,30.84,30.75,5,0,0,0.27
2013-11-6,72,64,51,45,36,30,54,37,26,31.10,30.76,11,2,0,0.07
2013-11-7,65,53,43,44,37,25,68,56,41,31.25,31.10,11,3,0,0.00
2013-11-8,65,56,49,48,39,29,67,55,45,31.21,31.01,8,1,0,0.00
2013-11-9,66,59,54,54,45,34,67,61,42,31.03,30.96,5,2,0,0.00
2013-11-10,71,60,53,55,44,31,67,55,42,31.13,31.01,6,1,0,0.00
2013-11-11,72,59,49,57,40,21,66,50,31,31.09,30.97,5,0,0,0.00
2013-11-12,62,53,44,44,33,21,68,49,32,31.44,31.06,13,3,0,0.00
2013-11-13,53,42,34,34,28,22,70,59,39,31.50,31.28,9,2,0,0.00
2013-11-14,59,49,33,48,37,15,71,65,45,31.27,30.91,6,2,0,0.00
2013-11-15,75,64,53,63,46,28,67,53,28,30.91,30.69,10,2,0,0.00
2013-11-16,80,72,62,58,39,28,48,30,24,30.74,30.55,15,5,0,0.01
2013-11-17,86,77,70,71,47,32,62,36,24,30.71,30.57,16,5,0,0.00
2013-11-18,77,70,61,62,41,25,65,39,19,30.92,30.70,6,2,0,0.00
2013-11-19,69,60,54,48,44,42,67,56,42,30.96,30.83,11,3,0,0.00
2013-11-20,69,62,51,56,44,31,67,54,26,30.85,30.73,11,3,0,0.00
2013-11-21,80,73,68,53,32,26,41,22,17,30.85,30.74,10,2,0,0.03
2013-11-22,74,51,40,29,17,11,36,27,17,31.18,30.84,16,6,0,0.04
2013-11-23,47,44,40,30,15,9,54,33,26,31.29,31.16,16,6,0,0.00
2013-11-24,45,41,38,34,27,15,68,59,38,31.31,31.18,12,5,0,0.00
2013-11-25,41,40,39,16,10,8,38,29,28,31.18,30.91,11,3,0,0.01
2013-11-26,44,40,37,24,13,8,51,34,29,31.16,30.92,12,3,0,0.00
2013-11-27,48,38,30,29,22,11,69,55,41,31.34,31.17,9,2,0,0.00
2013-11-28,57,42,29,43,26,7,69,55,34,31.35,31.23,8,1,0,0.00
2013-11-29,62,48,38,45,34,19,70,59,44,31.37,31.22,5,2,0,0.00
2013-11-30,68,55,39,55,39,16,67,57,31,31.25,31.04,10,2,0,0.00
2013-12-1,70,63,55,57,39,20,65,43,24,31.05,30.75,14,4,0,0.00
2013-12-2,77,66,58,60,37,17,67,38,19,30.75,30.45,10,3,0,0.00
2013-12-3,75,66,58,61,32,14,62,32,16,30.50,30.39,14,6,0,0.08
2013-12-4,78,71,67,61,35,19,57,29,15,30.59,30.48,17,8,0,0.00
2013-12-5,73,50,36,36,25,14,63,42,15,30.91,30.57,15,6,0,0.00
2013-12-6,39,36,31,23,13,6,59,41,29,31.29,30.86,13,6,0,0.08
2013-12-7,34,32,30,20,14,6,63,49,32,31.31,31.18,15,4,0,0.01
2013-12-8,43,38,32,21,9,4,43,31,25,31.17,30.94,7,1,0,0.01
2013-12-9,43,41,36,10,7,4,34,24,22,31.22,30.94,12,4,0,0.04
2013-12-10,44,35,29,30,21,11,72,58,37,31.36,31.21,12,3,0,0.00
2013-12-11,50,40,29,39,25,6,71,55,36,31.41,31.23,7,1,0,0.00
2013-12-12,52,41,31,36,26,8,72,57,33,31.45,31.23,5,1,0,0.00
2013-12-13,53,48,43,42,28,10,72,51,21,31.22,30.69,6,1,0,0.12
2013-12-14,54,46,36,38,21,6,69,41,16,31.15,30.70,14,4,0,0.01
2013-12-15,55,40,28,37,23,5,71,52,34,31.27,31.14,5,1,0,0.00
2013-12-16,63,46,31,43,28,6,71,52,31,31.20,31.07,12,2,0,0.00
2013-12-17,70,50,34,47,34,8,71,57,26,31.19,31.07,6,1,0,0.00
2013-12-18,68,54,37,53,36,9,68,51,21,31.16,30.93,11,3,0,0.00
2013-12-19,76,65,55,64,38,23,68,40,18,30.92,30.65,22,7,0,0.01
2013-12-20,76,72,68,56,33,18,51,26,14,30.68,30.47,15,8,0,0.00
2013-12-21,74,62,47,41,18,1,39,19,8,30.65,30.34,27,6,0,1.03
2013-12-22,51,47,35,40,18,-2,69,40,11,31.21,30.62,13,3,0,0.00
2013-12-23,50,38,31,35,24,10,70,57,39,31.42,31.21,11,3,0,0.00
2013-12-24,58,41,28,37,24,3,70,51,29,31.44,31.19,9,2,0,0.00
2013-12-25,54,47,37,44,26,4,69,48,15,31.23,31.14,12,2,0,0.08
2013-12-26,57,48,41,46,19,1,67,36,15,31.28,31.15,5,1,0,0.01
2013-12-27,57,49,43,44,30,11,68,50,27,31.29,31.18,6,1,0,0.00
2013-12-28,58,47,40,40,28,11,70,50,28,31.18,30.88,4,0,0,0.00
2013-12-29,63,49,37,49,38,19,70,65,43,31.07,30.82,12,2,0,0.00
2013-12-30,42,38,35,33,29,26,80,70,66,31.29,31.06,11,4,0,0.00
2013-12-31,47,40,36,36,30,14,72,66,34,31.35,31.14,4,1,0,0.00
2014-1-1,63,52,41,51,31,8,67,46,23,31.14,30.86,11,3,0,0.00
2014-1-2,56,41,29,42,27,14,72,60,19,31.33,30.90,17,5,0,0.00